createdAt,value
2019-05-14T00:00:53.372Z,99.99
2019-05-14T00:01:52.251Z,99.99
2019-05-14T00:02:52.194Z,99.99
2019-05-14T00:03:52.017Z,99.99
2019-05-14T00:04:52.019Z,99.99
2019-05-14T00:05:51.996Z,99.99
2019-05-14T00:06:52.106Z,99.99
2019-05-14T00:07:52.323Z,99.99
2019-05-14T00:08:52.331Z,99.99
2019-05-14T00:10:52.259Z,99.99
2019-05-14T00:11:51.710Z,99.99
2019-05-14T00:12:51.769Z,99.99
2019-05-14T00:13:52.220Z,99.99
2019-05-14T00:15:52.237Z,99.99
2019-05-14T00:16:51.707Z,99.99
2019-05-14T00:17:52.261Z,99.99
2019-05-14T00:18:51.724Z,99.99
2019-05-14T00:20:05.847Z,99.99
2019-05-14T00:20:51.597Z,99.99
2019-05-14T00:21:51.632Z,99.99
2019-05-14T00:22:52.199Z,99.99
2019-05-14T00:23:51.564Z,99.99
2019-05-14T00:24:52.121Z,99.99
2019-05-14T00:25:52.275Z,99.99
2019-05-14T00:26:51.791Z,99.99
2019-05-14T00:27:51.875Z,99.99
2019-05-14T00:28:51.407Z,99.99
2019-05-14T00:30:52.439Z,99.99
2019-05-14T00:31:51.835Z,99.99
2019-05-14T00:32:52.080Z,99.99
2019-05-14T00:33:51.451Z,99.99
2019-05-14T00:34:56.378Z,99.99
2019-05-14T00:35:51.591Z,99.99
2019-05-14T00:37:52.105Z,99.99
2019-05-14T00:38:51.520Z,99.99
2019-05-14T00:39:52.038Z,99.99
2019-05-14T00:41:51.375Z,99.99
2019-05-14T00:42:53.308Z,99.99
2019-05-14T00:43:51.501Z,99.99
2019-05-14T00:44:57.500Z,99.99
2019-05-14T00:45:51.301Z,99.99
2019-05-14T00:46:51.608Z,99.99
2019-05-14T00:47:52.514Z,99.99
2019-05-14T00:48:51.565Z,99.99
2019-05-14T00:49:51.749Z,99.99
2019-05-14T00:50:51.657Z,99.99
2019-05-14T00:51:51.902Z,99.99
2019-05-14T00:52:51.796Z,99.99
2019-05-14T00:53:51.571Z,99.99
2019-05-14T00:57:52.228Z,99.99
2019-05-14T00:58:52.116Z,99.99
2019-05-14T00:59:52.127Z,99.99
2019-05-14T01:00:52.508Z,99.99
2019-05-14T01:01:51.703Z,99.99
2019-05-14T01:02:51.762Z,99.99
2019-05-14T01:03:52.153Z,99.99
2019-05-14T01:05:52.152Z,99.99
2019-05-14T01:06:51.241Z,99.99
2019-05-14T01:07:51.450Z,99.99
2019-05-14T01:08:51.871Z,99.99
2019-05-14T01:09:52.389Z,99.99
2019-05-14T01:11:51.307Z,99.99
2019-05-14T01:12:52.029Z,99.99
2019-05-14T01:18:51.367Z,99.99
2019-05-14T01:19:51.328Z,99.99
2019-05-14T01:20:51.932Z,99.99
2019-05-14T01:21:51.066Z,99.99
2019-05-14T01:22:51.575Z,99.99
2019-05-14T01:23:51.400Z,99.99
2019-05-14T01:24:52.285Z,99.99
2019-05-14T01:25:51.633Z,99.99
2019-05-14T01:27:51.791Z,99.99
2019-05-14T01:28:51.342Z,99.99
2019-05-14T01:29:51.371Z,99.99
2019-05-14T01:30:51.923Z,99.99
2019-05-14T01:31:51.967Z,99.99
2019-05-14T01:32:51.326Z,99.99
2019-05-14T01:33:51.556Z,99.99
2019-05-14T01:34:51.975Z,99.99
2019-05-14T01:36:49.829Z,99.99
2019-05-14T01:37:52.211Z,99.99
2019-05-14T01:39:51.773Z,99.99
2019-05-14T01:40:52.489Z,99.99
2019-05-14T01:41:51.658Z,99.99
2019-05-14T01:42:52.044Z,99.99
2019-05-14T01:43:51.260Z,99.99
2019-05-14T01:44:51.970Z,99.99
2019-05-14T01:45:49.612Z,99.99
2019-05-14T01:46:51.262Z,99.99
2019-05-14T01:47:51.905Z,99.99
2019-05-14T01:48:49.460Z,99.99
2019-05-14T01:49:51.473Z,99.99
2019-05-14T01:50:51.811Z,99.99
2019-05-14T01:51:51.159Z,99.99
2019-05-14T01:52:51.842Z,99.99
2019-05-14T01:54:51.438Z,99.99
2019-05-14T01:55:51.802Z,99.99
2019-05-14T01:56:51.522Z,99.99
2019-05-14T01:57:51.554Z,99.99
2019-05-14T01:58:49.314Z,99.99
2019-05-14T01:59:51.474Z,99.99
2019-05-14T02:00:49.179Z,99.99
2019-05-14T02:01:51.536Z,99.99
2019-05-14T02:02:49.501Z,99.99
2019-05-14T02:03:51.623Z,99.99
2019-05-14T02:04:51.321Z,99.99
2019-05-14T02:05:49.055Z,99.99
2019-05-14T02:06:51.355Z,99.99
2019-05-14T02:07:49.008Z,99.99
2019-05-14T02:08:51.297Z,99.99
2019-05-14T02:09:51.614Z,99.99
2019-05-14T02:11:48.998Z,99.99
2019-05-14T02:12:51.353Z,99.99
2019-05-14T02:13:49.087Z,99.99
2019-05-14T02:14:51.081Z,99.99
2019-05-14T02:15:48.898Z,99.99
2019-05-14T02:16:51.099Z,99.99
2019-05-14T02:17:48.773Z,99.99
2019-05-14T02:18:48.750Z,99.99
2019-05-14T02:19:48.725Z,99.99
2019-05-14T02:20:48.702Z,99.99
2019-05-14T02:21:51.263Z,99.99
2019-05-14T02:22:48.658Z,99.99
2019-05-14T02:23:51.252Z,99.99
2019-05-14T02:24:48.696Z,99.99
2019-05-14T02:25:48.588Z,99.99
2019-05-14T02:26:48.648Z,99.99
2019-05-14T02:27:48.763Z,99.99
2019-05-14T02:28:48.509Z,99.99
2019-05-14T02:29:48.589Z,99.99
2019-05-14T02:30:57.641Z,99.99
2019-05-14T02:31:50.457Z,99.99
2019-05-14T02:32:49.815Z,99.99
2019-05-14T02:33:50.374Z,99.99
2019-05-14T02:34:50.028Z,99.99
2019-05-14T02:35:49.320Z,99.99
2019-05-14T02:36:49.626Z,99.99
2019-05-14T02:37:50.511Z,99.99
2019-05-14T02:38:49.350Z,99.99
2019-05-14T02:39:50.163Z,99.99
2019-05-14T02:40:49.385Z,99.99
2019-05-14T02:41:49.870Z,99.99
2019-05-14T02:42:49.815Z,99.99
2019-05-14T02:43:50.375Z,99.99
2019-05-14T02:44:48.956Z,99.99
2019-05-14T02:46:02.000Z,99.99
2019-05-14T02:46:50.582Z,99.99
2019-05-14T02:47:50.300Z,99.99
2019-05-14T02:48:49.141Z,99.99
2019-05-14T02:49:50.188Z,99.99
2019-05-14T02:50:49.456Z,99.99
2019-05-14T02:51:50.450Z,99.99
2019-05-14T02:52:49.643Z,99.99
2019-05-14T02:53:49.824Z,99.99
2019-05-14T02:54:49.614Z,99.99
2019-05-14T02:55:49.755Z,99.99
2019-05-14T02:56:49.521Z,99.99
2019-05-14T02:57:50.109Z,99.99
2019-05-14T02:58:49.920Z,99.99
2019-05-14T02:59:50.174Z,99.99
2019-05-14T03:00:49.174Z,99.99
2019-05-14T03:01:50.200Z,99.99
2019-05-14T03:02:49.488Z,99.99
2019-05-14T03:04:49.904Z,99.99
2019-05-14T03:05:49.534Z,99.99
2019-05-14T03:06:49.828Z,99.99
2019-05-14T03:07:50.015Z,99.99
2019-05-14T03:08:49.372Z,99.99
2019-05-14T03:10:50.416Z,99.99
2019-05-14T03:14:49.831Z,99.99
2019-05-14T03:16:49.452Z,99.99
2019-05-14T03:17:49.407Z,99.99
2019-05-14T03:18:50.143Z,99.99
2019-05-14T03:19:49.631Z,99.99
2019-05-14T03:20:50.184Z,99.99
2019-05-14T03:21:50.175Z,99.99
2019-05-14T03:23:49.680Z,99.99
2019-05-14T03:24:49.982Z,99.99
2019-05-14T03:25:49.330Z,99.99
2019-05-14T03:26:49.952Z,99.99
2019-05-14T03:27:49.648Z,99.99
2019-05-14T03:28:49.607Z,99.99
2019-05-14T03:29:49.547Z,99.99
2019-05-14T03:30:52.022Z,99.99
2019-05-14T03:31:52.665Z,99.99
2019-05-14T03:33:52.162Z,99.99
2019-05-14T03:34:52.216Z,99.99
2019-05-14T03:35:52.013Z,99.99
2019-05-14T03:36:52.901Z,99.99
2019-05-14T03:37:49.579Z,99.99
2019-05-14T03:38:49.962Z,99.99
2019-05-14T03:39:49.346Z,99.99
2019-05-14T03:40:49.440Z,99.99
2019-05-14T03:42:49.058Z,99.99
2019-05-14T03:43:49.423Z,99.99
2019-05-14T03:44:49.050Z,99.99
2019-05-14T03:45:49.285Z,99.99
2019-05-14T03:46:54.714Z,99.99
2019-05-14T03:47:50.114Z,99.99
2019-05-14T03:49:49.559Z,99.99
2019-05-14T03:50:49.539Z,99.99
2019-05-14T03:51:49.452Z,99.99
2019-05-14T03:52:49.583Z,99.99
2019-05-14T03:54:00.703Z,99.99
2019-05-14T03:54:49.560Z,99.99
2019-05-14T03:55:49.995Z,99.99
2019-05-14T03:56:49.358Z,99.99
2019-05-14T03:58:49.249Z,99.99
2019-05-14T03:59:49.615Z,99.99
2019-05-14T04:03:46.366Z,99.99
2019-05-14T04:04:50.053Z,99.99
2019-05-14T04:05:49.352Z,99.99
2019-05-14T04:06:49.357Z,99.99
2019-05-14T04:07:49.879Z,99.99
2019-05-14T04:08:49.500Z,99.99
2019-05-14T04:09:49.369Z,99.99
2019-05-14T04:10:53.015Z,99.99
2019-05-14T04:11:46.273Z,99.99
2019-05-14T04:12:48.887Z,99.99
2019-05-14T04:13:49.401Z,99.99
2019-05-14T04:14:46.103Z,99.99
2019-05-14T04:17:01.607Z,99.99
2019-05-14T04:17:49.837Z,99.99
2019-05-14T04:18:45.948Z,99.99
2019-05-14T04:19:49.251Z,99.99
2019-05-14T04:20:49.769Z,99.99
2019-05-14T04:21:48.857Z,99.99
2019-05-14T04:23:45.818Z,99.99
2019-05-14T04:24:49.359Z,99.99
2019-05-14T04:25:45.768Z,99.99
2019-05-14T04:27:49.110Z,99.99
2019-05-14T04:28:45.905Z,99.99
2019-05-14T04:29:45.911Z,99.99
2019-05-14T04:30:49.093Z,99.99
2019-05-14T04:31:45.623Z,99.99
2019-05-14T04:32:45.654Z,99.99
2019-05-14T04:33:45.566Z,99.99
2019-05-14T04:34:45.547Z,99.99
2019-05-14T04:36:45.818Z,99.99
2019-05-14T04:42:45.711Z,99.99
2019-05-14T04:43:45.333Z,99.99
2019-05-14T04:44:45.308Z,99.99
2019-05-14T04:45:45.203Z,99.99
2019-05-14T04:46:45.302Z,99.99
2019-05-14T04:47:45.385Z,99.99
2019-05-14T04:48:45.458Z,99.99
2019-05-14T04:49:45.509Z,99.99
2019-05-14T04:50:45.185Z,99.99
2019-05-14T04:51:45.161Z,99.99
2019-05-14T04:54:45.398Z,99.99
2019-05-14T04:55:45.489Z,99.99
2019-05-14T04:59:44.971Z,99.99
2019-05-14T05:00:45.097Z,99.99
2019-05-14T05:01:44.829Z,99.99
2019-05-14T05:02:44.906Z,99.99
2019-05-14T05:03:45.405Z,99.99
2019-05-14T05:04:44.870Z,99.99
2019-05-14T05:05:44.845Z,99.99
2019-05-14T05:06:44.990Z,99.99
2019-05-14T05:07:44.802Z,99.99
2019-05-14T05:08:44.774Z,99.99
2019-05-14T05:09:45.745Z,99.99
2019-05-14T05:10:45.029Z,99.99
2019-05-14T05:12:44.716Z,99.99
2019-05-14T05:13:44.637Z,99.99
2019-05-14T05:14:44.524Z,99.99
2019-05-14T05:15:44.595Z,99.99
2019-05-14T05:16:44.593Z,99.99
2019-05-14T05:18:44.830Z,99.99
2019-05-14T05:19:45.944Z,99.99
2019-05-14T05:20:44.396Z,99.99
2019-05-14T05:21:44.379Z,99.99
2019-05-14T05:22:44.360Z,99.99
2019-05-14T05:23:44.340Z,99.99
2019-05-14T05:24:44.345Z,99.99
2019-05-14T05:29:00.067Z,99.99
2019-05-14T05:33:44.351Z,99.99
2019-05-14T05:35:49.235Z,99.99
2019-05-14T05:36:44.273Z,99.99
2019-05-14T05:37:44.572Z,99.99
2019-05-14T05:38:44.020Z,99.99
2019-05-14T05:39:43.969Z,99.99
2019-05-14T05:40:43.962Z,99.99
2019-05-14T05:41:44.006Z,99.99
2019-05-14T05:42:44.262Z,99.99
2019-05-14T05:44:44.329Z,99.99
2019-05-14T05:45:43.896Z,99.99
2019-05-14T05:47:57.114Z,99.99
2019-05-14T05:48:43.955Z,99.99
2019-05-14T05:49:44.103Z,99.99
2019-05-14T05:51:43.901Z,99.99
2019-05-14T05:58:43.671Z,99.99
2019-05-14T06:01:46.472Z,99.99
2019-05-14T06:02:43.921Z,99.99
2019-05-14T06:12:43.492Z,99.99
2019-05-14T06:14:43.653Z,99.99
2019-05-14T06:15:48.255Z,99.99
2019-05-14T06:16:43.189Z,99.99
2019-05-14T06:17:43.156Z,99.99
2019-05-14T06:22:43.249Z,99.99
2019-05-14T06:23:44.115Z,99.99
2019-05-14T06:24:43.422Z,99.99
2019-05-14T06:25:43.456Z,99.99
2019-05-14T06:26:43.670Z,99.99
2019-05-14T06:27:43.377Z,99.99
2019-05-14T06:32:42.882Z,99.99
2019-05-14T06:33:44.493Z,99.99
2019-05-14T06:34:42.810Z,99.99
2019-05-14T06:35:43.201Z,99.99
2019-05-14T06:36:42.844Z,99.22
2019-05-14T06:37:45.122Z,98.56
2019-05-14T06:38:42.832Z,98.36
2019-05-14T06:40:42.700Z,97.89
2019-05-14T06:42:43.053Z,97.89
2019-05-14T06:43:42.922Z,97.51
2019-05-14T06:44:42.681Z,97.08
2019-05-14T06:45:43.797Z,96.89
2019-05-14T06:46:43.590Z,97.46
2019-05-14T06:47:44.853Z,97.85
2019-05-14T06:48:43.571Z,97.56
2019-05-14T06:49:44.031Z,97.75
2019-05-14T06:50:42.866Z,98.03
2019-05-14T06:57:43.183Z,97.32
2019-05-14T06:59:42.325Z,96.03
2019-05-14T07:00:42.385Z,95.70
2019-05-14T07:02:44.228Z,95.79
2019-05-14T07:03:42.354Z,95.41
2019-05-14T07:04:42.265Z,95.61
2019-05-14T07:05:42.284Z,95.61
2019-05-14T07:06:42.176Z,96.17
2019-05-14T07:07:44.021Z,96.66
2019-05-14T07:08:42.632Z,95.89
2019-05-14T07:09:42.213Z,95.61
2019-05-14T07:10:42.201Z,95.61
2019-05-14T07:11:42.191Z,94.74
2019-05-14T07:12:42.162Z,94.46
2019-05-14T07:13:42.158Z,94.74
2019-05-14T07:14:42.661Z,95.12
2019-05-14T07:15:42.193Z,93.79
2019-05-14T07:16:42.102Z,93.74
2019-05-14T07:17:42.073Z,94.36
2019-05-14T07:18:48.742Z,93.46
2019-05-14T07:19:41.934Z,93.65
2019-05-14T07:20:42.676Z,93.46
2019-05-14T07:21:41.906Z,92.50
2019-05-14T07:22:41.893Z,91.97
2019-05-14T07:23:41.947Z,91.11
2019-05-14T07:24:41.850Z,91.02
2019-05-14T07:25:41.918Z,89.68
2019-05-14T07:26:42.380Z,88.54
2019-05-14T07:27:41.931Z,88.48
2019-05-14T07:29:41.749Z,86.28
2019-05-14T07:30:41.847Z,84.36
2019-05-14T07:31:41.710Z,81.82
2019-05-14T07:32:42.321Z,81.15
2019-05-14T07:33:41.841Z,81.38
2019-05-14T07:34:41.668Z,79.89
2019-05-14T07:41:42.441Z,72.97
2019-05-14T07:42:41.676Z,73.20
2019-05-14T07:43:41.667Z,73.58
2019-05-14T07:45:41.662Z,72.33
2019-05-14T07:46:41.604Z,71.41
2019-05-14T07:51:41.959Z,67.35
2019-05-14T07:52:45.591Z,65.94
2019-05-14T07:54:41.901Z,65.23
2019-05-14T07:55:41.364Z,65.05
2019-05-14T07:56:41.856Z,65.23
2019-05-14T07:57:41.452Z,63.41
2019-05-14T07:58:41.508Z,63.57
2019-05-14T07:59:41.516Z,64.76
2019-05-14T08:00:41.561Z,64.66
2019-05-14T08:01:41.838Z,64.95
2019-05-14T08:02:41.388Z,64.98
2019-05-14T08:04:41.801Z,64.25
2019-05-14T08:05:41.312Z,63.38
2019-05-14T08:06:41.342Z,61.55
2019-05-14T08:11:41.574Z,61.65
2019-05-14T08:13:42.694Z,60.91
2019-05-14T08:14:55.732Z,61.39
2019-05-14T08:16:41.191Z,62.74
2019-05-14T08:17:41.092Z,60.52
2019-05-14T08:18:41.446Z,60.24
2019-05-14T08:19:41.511Z,60.49
2019-05-14T08:20:41.224Z,62.04
2019-05-14T08:21:41.208Z,63.86
2019-05-14T08:25:41.361Z,59.75
2019-05-14T08:27:41.033Z,56.00
2019-05-14T08:28:40.968Z,56.00
2019-05-14T08:29:41.053Z,55.45
2019-05-14T08:31:41.358Z,54.22
2019-05-14T08:33:40.930Z,53.39
2019-05-14T08:35:40.905Z,51.84
2019-05-14T08:38:45.383Z,51.89
2019-05-14T08:39:40.963Z,51.20
2019-05-14T08:40:40.944Z,50.13
2019-05-14T08:41:40.849Z,49.46
2019-05-14T08:44:41.330Z,50.59
2019-05-14T08:45:40.920Z,51.20
2019-05-14T08:46:40.885Z,50.98
2019-05-14T08:47:40.924Z,50.32
2019-05-14T08:48:40.871Z,49.55
2019-05-14T08:49:46.204Z,49.17
2019-05-14T08:50:40.910Z,48.11
2019-05-14T08:51:40.952Z,48.03
2019-05-14T08:52:41.026Z,49.17
2019-05-14T08:53:40.890Z,49.39
2019-05-14T08:54:41.268Z,49.58
2019-05-14T08:55:41.002Z,47.82
2019-05-14T08:56:41.218Z,48.21
2019-05-14T08:57:41.330Z,50.45
2019-05-14T08:59:41.062Z,47.85
2019-05-14T09:05:41.732Z,46.81
2019-05-14T09:06:40.897Z,46.59
2019-05-14T09:07:40.913Z,45.14
2019-05-14T09:08:40.728Z,46.11
2019-05-14T09:09:40.874Z,46.78
2019-05-14T09:10:41.447Z,48.03
2019-05-14T09:11:44.937Z,48.03
2019-05-14T09:12:40.896Z,47.87
2019-05-14T09:13:40.704Z,47.38
2019-05-14T09:15:41.397Z,45.94
2019-05-14T09:16:46.788Z,47.12
2019-05-14T09:17:41.183Z,47.41
2019-05-14T09:18:41.381Z,45.76
2019-05-14T09:19:57.270Z,45.67
2019-05-14T09:20:42.443Z,45.38
2019-05-14T09:21:42.479Z,45.50
2019-05-14T09:22:40.675Z,45.18
2019-05-14T09:23:40.571Z,44.73
2019-05-14T09:27:40.630Z,44.17
2019-05-14T09:29:42.771Z,44.24
2019-05-14T09:30:40.599Z,42.77
2019-05-14T09:33:41.140Z,46.88
2019-05-14T09:35:40.811Z,47.89
2019-05-14T09:36:40.569Z,50.18
2019-05-14T09:37:40.509Z,50.99
2019-05-14T09:40:41.391Z,46.66
2019-05-14T09:41:41.865Z,46.01
2019-05-14T09:42:40.542Z,46.42
2019-05-14T09:43:40.543Z,45.00
2019-05-14T09:44:40.476Z,44.70
2019-05-14T09:45:40.871Z,45.36
2019-05-14T09:46:40.904Z,45.76
2019-05-14T09:47:40.675Z,44.63
2019-05-14T09:48:40.407Z,45.50
2019-05-14T09:49:40.383Z,44.56
2019-05-14T09:50:41.294Z,42.31
2019-05-14T09:51:40.370Z,43.47
2019-05-14T09:52:40.443Z,42.97
2019-05-14T09:53:41.082Z,44.18
2019-05-14T09:54:43.936Z,44.68
2019-05-14T09:55:40.488Z,44.01
2019-05-14T09:56:41.403Z,44.70
2019-05-14T09:57:40.412Z,45.59
2019-05-14T09:58:40.429Z,45.14
2019-05-14T09:59:40.454Z,43.51
2019-05-14T10:00:40.714Z,43.23
2019-05-14T10:01:40.311Z,42.55
2019-05-14T10:02:40.333Z,41.99
2019-05-14T10:03:40.416Z,40.34
2019-05-14T10:05:40.559Z,40.71
2019-05-14T10:06:40.460Z,41.29
2019-05-14T10:07:40.983Z,40.88
2019-05-14T10:11:41.595Z,43.16
2019-05-14T10:12:51.774Z,42.50
2019-05-14T10:13:41.096Z,41.66
2019-05-14T10:14:40.513Z,41.09
2019-05-14T10:15:40.480Z,40.44
2019-05-14T10:16:40.762Z,42.07
2019-05-14T10:18:40.870Z,42.10
2019-05-14T10:20:45.361Z,42.88
2019-05-14T10:22:40.273Z,45.90
2019-05-14T10:23:40.578Z,46.33
2019-05-14T10:25:42.376Z,48.43
2019-05-14T10:26:40.377Z,47.82
2019-05-14T10:28:43.404Z,51.40
2019-05-14T10:32:42.059Z,46.93
2019-05-14T10:34:40.570Z,46.98
2019-05-14T10:35:40.278Z,48.23
2019-05-14T10:36:40.816Z,50.32
2019-05-14T10:39:40.203Z,51.45
2019-05-14T10:41:40.545Z,51.90
2019-05-14T10:43:40.301Z,53.27
2019-05-14T10:44:40.323Z,52.29
2019-05-14T10:45:40.473Z,51.38
2019-05-14T10:47:41.181Z,47.05
2019-05-14T10:49:40.972Z,45.55
2019-05-14T10:50:55.726Z,45.65
2019-05-14T10:51:41.511Z,43.10
2019-05-14T10:52:40.145Z,43.55
2019-05-14T10:54:54.954Z,44.78
2019-05-14T10:55:40.271Z,45.79
2019-05-14T10:56:40.254Z,43.10
2019-05-14T10:58:40.253Z,40.42
2019-05-14T10:59:40.107Z,39.86
2019-05-14T11:01:40.307Z,38.25
2019-05-14T11:02:40.013Z,39.03
2019-05-14T11:03:40.123Z,36.70
2019-05-14T11:05:41.752Z,38.02
2019-05-14T11:06:40.073Z,38.25
2019-05-14T11:07:41.768Z,38.02
2019-05-14T11:09:40.064Z,42.09
2019-05-14T11:12:40.080Z,41.11
2019-05-14T11:13:40.402Z,41.02
2019-05-14T11:14:40.279Z,41.54
2019-05-14T11:16:41.952Z,43.12
2019-05-14T11:17:40.713Z,41.92
2019-05-14T11:18:40.259Z,42.59
2019-05-14T11:20:43.585Z,45.22
2019-05-14T11:21:43.293Z,45.32
2019-05-14T11:22:44.183Z,43.95
2019-05-14T11:23:40.323Z,45.56
2019-05-14T11:24:41.361Z,47.17
2019-05-14T11:25:42.593Z,46.96
2019-05-14T11:26:39.920Z,48.09
2019-05-14T11:27:39.911Z,49.15
2019-05-14T11:31:39.986Z,44.35
2019-05-14T11:32:40.203Z,41.50
2019-05-14T11:34:40.059Z,40.22
2019-05-14T11:35:40.194Z,40.09
2019-05-14T11:36:40.051Z,41.03
2019-05-14T11:37:41.387Z,43.54
2019-05-14T11:38:40.045Z,45.65
2019-05-14T11:39:40.217Z,44.19
2019-05-14T11:40:39.884Z,46.01
2019-05-14T11:44:39.949Z,45.70
2019-05-14T11:45:40.004Z,46.38
2019-05-14T11:47:40.103Z,46.78
2019-05-14T11:49:40.351Z,43.24
2019-05-14T11:51:59.287Z,42.74
2019-05-14T11:52:39.697Z,42.37
2019-05-14T11:53:39.659Z,38.62
2019-05-14T11:54:41.096Z,36.49
2019-05-14T11:56:41.789Z,37.57
2019-05-14T11:57:39.728Z,35.44
2019-05-14T12:01:39.614Z,36.06
2019-05-14T12:02:39.731Z,36.60
2019-05-14T12:03:40.030Z,36.65
2019-05-14T12:04:39.707Z,37.70
2019-05-14T12:05:39.690Z,37.32
2019-05-14T12:06:39.594Z,39.67
2019-05-14T12:07:39.876Z,39.16
2019-05-14T12:08:41.941Z,38.71
2019-05-14T12:09:39.981Z,39.64
2019-05-14T12:10:39.714Z,41.75
2019-05-14T12:11:39.578Z,41.92
2019-05-14T12:12:40.396Z,41.22
2019-05-14T12:13:39.728Z,41.59
2019-05-14T12:15:41.327Z,41.45
2019-05-14T12:16:41.352Z,43.93
2019-05-14T12:17:39.750Z,44.10
2019-05-14T12:18:41.661Z,45.25
2019-05-14T12:19:43.345Z,46.86
2019-05-14T12:22:39.720Z,41.89
2019-05-14T12:23:39.523Z,40.88
2019-05-14T12:24:39.642Z,39.47
2019-05-14T12:25:39.527Z,39.01
2019-05-14T12:26:39.477Z,37.58
2019-05-14T12:29:40.127Z,37.57
2019-05-14T12:30:39.792Z,35.07
2019-05-14T12:31:39.722Z,34.99
2019-05-14T12:33:40.003Z,32.26
2019-05-14T12:34:39.661Z,34.73
2019-05-14T12:35:40.578Z,36.86
2019-05-14T12:36:39.851Z,35.37
2019-05-14T12:39:39.519Z,38.37
2019-05-14T12:41:39.653Z,38.29
2019-05-14T12:42:39.678Z,39.26
2019-05-14T12:44:40.961Z,40.39
2019-05-14T12:46:44.984Z,42.94
2019-05-14T12:47:39.748Z,43.14
2019-05-14T12:48:39.661Z,43.54
2019-05-14T12:49:40.369Z,43.23
2019-05-14T12:50:39.530Z,43.37
2019-05-14T12:51:42.516Z,41.50
2019-05-14T12:53:40.713Z,37.50
2019-05-14T12:58:45.305Z,41.39
2019-05-14T13:05:39.715Z,47.75
2019-05-14T13:06:40.098Z,46.47
2019-05-14T13:07:41.791Z,43.94
2019-05-14T13:08:39.335Z,42.46
2019-05-14T13:09:39.453Z,41.35
2019-05-14T13:11:41.642Z,38.35
2019-05-14T13:12:39.455Z,38.35
2019-05-14T13:13:42.874Z,36.53
2019-05-14T13:15:39.522Z,35.95
2019-05-14T13:19:40.990Z,35.41
2019-05-14T13:20:39.925Z,33.55
2019-05-14T13:22:45.656Z,33.73
2019-05-14T13:23:39.204Z,34.21
2019-05-14T13:25:39.770Z,37.83
2019-05-14T13:27:39.375Z,40.32
2019-05-14T13:28:40.073Z,39.53
2019-05-14T13:29:39.236Z,40.86
2019-05-14T13:31:39.710Z,43.12
2019-05-14T13:32:39.988Z,41.20
2019-05-14T13:34:39.705Z,40.11
2019-05-14T13:37:39.936Z,36.41
2019-05-14T13:38:39.738Z,35.85
2019-05-14T13:39:39.907Z,34.89
2019-05-14T13:40:40.779Z,33.81
2019-05-14T13:41:41.953Z,35.86
2019-05-14T13:42:40.835Z,35.64
2019-05-14T13:43:40.245Z,34.67
2019-05-14T13:45:39.375Z,34.05
2019-05-14T13:46:48.689Z,34.73
2019-05-14T13:54:40.338Z,33.99
2019-05-14T13:57:39.995Z,31.28
2019-05-14T13:58:39.343Z,33.95
2019-05-14T14:01:39.299Z,38.97
2019-05-14T14:02:38.939Z,39.59
2019-05-14T14:04:39.096Z,38.01
2019-05-14T14:05:39.443Z,39.53
2019-05-14T14:06:39.448Z,39.61
2019-05-14T14:07:40.188Z,39.94
2019-05-14T14:09:39.731Z,38.60
2019-05-14T14:11:39.027Z,38.28
2019-05-14T14:17:39.757Z,36.17
2019-05-14T14:18:39.633Z,39.91
2019-05-14T14:19:39.047Z,41.13
2019-05-14T14:26:39.579Z,43.37
2019-05-14T14:29:39.680Z,38.89
2019-05-14T14:30:39.474Z,38.12
2019-05-14T14:31:41.566Z,37.83
2019-05-14T14:32:40.954Z,36.59
2019-05-14T14:33:39.735Z,34.95
2019-05-14T14:35:38.953Z,34.12
2019-05-14T14:37:39.786Z,32.97
2019-05-14T14:38:40.173Z,33.86
2019-05-14T14:39:38.894Z,35.95
2019-05-14T14:41:40.124Z,38.56
2019-05-14T14:42:39.967Z,39.97
2019-05-14T14:44:39.385Z,41.64
2019-05-14T14:45:44.655Z,44.43
2019-05-14T14:50:39.199Z,42.11
2019-05-14T14:52:40.178Z,37.71
2019-05-14T14:53:52.508Z,38.62
2019-05-14T14:54:38.643Z,37.17
2019-05-14T14:55:39.967Z,36.42
2019-05-14T14:57:45.116Z,35.74
2019-05-14T14:58:45.961Z,35.72
2019-05-14T14:59:39.218Z,35.71
2019-05-14T15:00:38.806Z,36.36
2019-05-14T15:01:40.177Z,38.45
2019-05-14T15:02:41.276Z,41.20
2019-05-14T15:04:39.786Z,43.66
2019-05-14T15:05:39.098Z,44.87
2019-05-14T15:06:39.977Z,44.27
2019-05-14T15:07:40.821Z,45.40
2019-05-14T15:09:40.456Z,46.94
2019-05-14T15:10:39.636Z,48.16
2019-05-14T15:11:39.603Z,49.21
2019-05-14T15:13:39.018Z,48.02
2019-05-14T15:14:39.553Z,46.43
2019-05-14T15:15:39.456Z,44.62
2019-05-14T15:22:38.539Z,39.28
2019-05-14T15:23:42.557Z,38.43
2019-05-14T15:24:38.393Z,39.51
2019-05-14T15:25:39.008Z,38.93
2019-05-14T15:26:38.493Z,38.53
2019-05-14T15:27:38.809Z,39.97
2019-05-14T15:29:39.099Z,40.05
2019-05-14T15:31:38.735Z,41.02
2019-05-14T15:33:38.310Z,39.54
2019-05-14T15:34:38.452Z,40.03
2019-05-14T15:35:38.403Z,39.54
2019-05-14T15:37:42.640Z,39.82
2019-05-14T15:41:39.319Z,39.94
2019-05-14T15:42:39.484Z,40.53
2019-05-14T15:43:39.553Z,39.78
2019-05-14T15:44:48.985Z,40.94
2019-05-14T15:45:38.307Z,39.72
2019-05-14T15:48:39.489Z,38.12
2019-05-14T15:49:38.934Z,39.04
2019-05-14T15:50:38.954Z,40.99
2019-05-14T15:52:39.506Z,41.61
2019-05-14T15:53:38.729Z,42.93
2019-05-14T15:56:39.500Z,46.41
2019-05-14T15:59:39.186Z,49.91
2019-05-14T16:04:38.994Z,53.24
2019-05-14T16:05:39.418Z,53.27
2019-05-14T16:07:40.871Z,48.54
2019-05-14T16:17:47.811Z,41.88
2019-05-14T16:18:38.557Z,42.07
2019-05-14T16:19:39.223Z,41.97
2019-05-14T16:24:53.026Z,44.42
2019-05-14T16:26:38.070Z,45.03
2019-05-14T16:28:39.394Z,44.25
2019-05-14T16:29:45.149Z,44.08
2019-05-14T16:30:39.675Z,44.27
2019-05-14T16:32:39.403Z,43.77
2019-05-14T16:33:40.410Z,43.67
2019-05-14T16:34:40.948Z,44.35
2019-05-14T16:35:39.265Z,44.83
2019-05-14T16:36:41.230Z,44.54
2019-05-14T16:40:39.569Z,43.38
2019-05-14T16:41:38.959Z,43.21
2019-05-14T16:42:39.629Z,40.97
2019-05-14T16:43:40.004Z,40.86
2019-05-14T16:44:39.119Z,40.91
2019-05-14T16:45:39.644Z,43.11
2019-05-14T16:46:38.518Z,43.95
2019-05-14T16:47:39.839Z,45.01
2019-05-14T16:50:37.770Z,45.29
2019-05-14T17:01:38.048Z,47.72
2019-05-14T17:02:37.918Z,46.77
2019-05-14T17:06:38.537Z,46.43
2019-05-14T17:07:38.590Z,46.91
2019-05-14T17:09:38.494Z,48.47
2019-05-14T17:10:38.797Z,47.51
2019-05-14T17:12:49.565Z,46.43
2019-05-14T17:14:38.901Z,47.72
2019-05-14T17:16:37.825Z,49.41
2019-05-14T17:19:38.612Z,51.46
2019-05-14T17:26:38.156Z,54.22
2019-05-14T17:27:39.502Z,53.07
2019-05-14T17:30:38.570Z,52.07
2019-05-14T17:32:39.117Z,50.34
2019-05-14T17:36:38.918Z,49.50
2019-05-14T17:37:39.458Z,49.62
2019-05-14T17:40:39.618Z,48.85
2019-05-14T17:41:41.603Z,47.89
2019-05-14T17:43:39.411Z,49.02
2019-05-14T17:44:38.825Z,48.35
2019-05-14T17:46:39.412Z,48.16
2019-05-14T17:47:38.877Z,48.43
2019-05-14T17:48:39.127Z,49.00
2019-05-14T17:49:39.175Z,49.00
2019-05-14T17:50:38.370Z,49.69
2019-05-14T17:51:39.127Z,50.05
2019-05-14T17:52:45.301Z,50.24
2019-05-14T17:53:38.539Z,49.57
2019-05-14T18:04:37.383Z,50.51
2019-05-14T18:05:36.884Z,50.51
2019-05-14T18:08:36.761Z,51.63
2019-05-14T18:09:36.989Z,52.01
2019-05-14T18:18:37.380Z,55.67
2019-05-14T18:19:37.972Z,56.02
2019-05-14T18:20:39.176Z,57.65
2019-05-14T18:21:38.827Z,57.75
2019-05-14T18:24:39.281Z,60.01
2019-05-14T18:25:38.859Z,59.53
2019-05-14T18:26:38.599Z,59.44
2019-05-14T18:29:38.992Z,59.98
2019-05-14T18:30:38.690Z,60.36
2019-05-14T18:31:43.131Z,60.74
2019-05-14T18:32:36.420Z,60.17
2019-05-14T18:33:39.570Z,60.93
2019-05-14T18:34:38.983Z,61.03
2019-05-14T18:35:44.090Z,61.03
2019-05-14T18:36:39.504Z,60.27
2019-05-14T18:37:38.627Z,60.55
2019-05-14T18:38:38.816Z,61.03
2019-05-14T18:41:38.745Z,61.86
2019-05-14T18:42:38.811Z,62.34
2019-05-14T18:43:36.663Z,62.91
2019-05-14T18:44:38.917Z,61.38
2019-05-14T18:45:38.742Z,62.05
2019-05-14T18:46:39.185Z,63.10
2019-05-14T18:47:39.750Z,63.48
2019-05-14T18:48:36.173Z,63.10
2019-05-14T18:49:36.190Z,63.35
2019-05-14T18:51:36.420Z,63.92
2019-05-14T18:53:38.233Z,64.02
2019-05-14T18:54:38.567Z,64.69
2019-05-14T18:55:38.412Z,62.88
2019-05-14T18:56:38.342Z,63.35
2019-05-14T18:58:38.683Z,64.12
2019-05-14T18:59:38.922Z,64.02
2019-05-14T19:02:35.906Z,64.31
2019-05-14T19:03:39.305Z,65.33
2019-05-14T19:04:38.053Z,65.23
2019-05-14T19:07:39.464Z,66.85